sensor_id;sensor_type;location;lat;lon;timestamp;pressure;altitude;pressure_sealevel;temperature;humidity
79729;BME280;69218;52.132;5.418;2023-08-01T00:02:22;99993.69;;;16.24;89.79
79729;BME280;69218;52.132;5.418;2023-08-01T00:04:49;99990.75;;;16.19;90.00
79729;BME280;69218;52.132;5.418;2023-08-01T00:07:15;99985.84;;;16.16;90.33
79729;BME280;69218;52.132;5.418;2023-08-01T00:09:42;99989.63;;;16.13;89.68
79729;BME280;69218;52.132;5.418;2023-08-01T00:12:08;99993.47;;;16.11;90.08
79729;BME280;69218;52.132;5.418;2023-08-01T00:14:36;99991.34;;;16.06;91.08
79729;BME280;69218;52.132;5.418;2023-08-01T00:17:03;99986.88;;;16.07;91.17
79729;BME280;69218;52.132;5.418;2023-08-01T00:19:29;99989.72;;;16.05;90.84
79729;BME280;69218;52.132;5.418;2023-08-01T00:21:56;99991.53;;;16.05;91.50
79729;BME280;69218;52.132;5.418;2023-08-01T00:24:22;99981.59;;;16.07;90.06
79729;BME280;69218;52.132;5.418;2023-08-01T00:26:49;99982.09;;;16.10;90.46
79729;BME280;69218;52.132;5.418;2023-08-01T00:29:15;99973.34;;;16.10;90.21
79729;BME280;69218;52.132;5.418;2023-08-01T00:31:42;99965.41;;;16.10;90.06
79729;BME280;69218;52.132;5.418;2023-08-01T00:34:08;99960.28;;;16.08;89.37
79729;BME280;69218;52.132;5.418;2023-08-01T00:36:35;99958.00;;;16.05;90.03
79729;BME280;69218;52.132;5.418;2023-08-01T00:39:01;99953.06;;;16.02;89.82
79729;BME280;69218;52.132;5.418;2023-08-01T00:41:28;99951.97;;;15.97;90.29
79729;BME280;69218;52.132;5.418;2023-08-01T00:43:54;99941.91;;;15.92;89.30
79729;BME280;69218;52.132;5.418;2023-08-01T00:46:21;99935.53;;;15.86;89.54
79729;BME280;69218;52.132;5.418;2023-08-01T00:48:48;99936.91;;;15.82;89.42
79729;BME280;69218;52.132;5.418;2023-08-01T00:51:14;99928.66;;;15.77;90.04
79729;BME280;69218;52.132;5.418;2023-08-01T00:53:41;99924.94;;;15.72;89.75
79729;BME280;69218;52.132;5.418;2023-08-01T00:56:08;99925.75;;;15.72;89.17
79729;BME280;69218;52.132;5.418;2023-08-01T00:58:34;99921.81;;;15.68;89.41
79729;BME280;69218;52.132;5.418;2023-08-01T01:01:01;99922.34;;;15.63;89.20
79729;BME280;69218;52.132;5.418;2023-08-01T01:03:30;99911.13;;;15.61;88.99
79729;BME280;69218;52.132;5.418;2023-08-01T01:06:20;99908.31;;;15.63;88.58
79729;BME280;69218;52.132;5.418;2023-08-01T01:08:49;99913.44;;;15.56;89.15
79729;BME280;69218;52.132;5.418;2023-08-01T01:11:15;99913.19;;;15.51;88.88
79729;BME280;69218;52.132;5.418;2023-08-01T01:13:42;99912.50;;;15.49;89.16
79729;BME280;69218;52.132;5.418;2023-08-01T01:16:08;99909.59;;;15.44;89.45
79729;BME280;69218;52.132;5.418;2023-08-01T01:18:35;99916.03;;;15.42;89.22
79729;BME280;69218;52.132;5.418;2023-08-01T01:21:01;99920.06;;;15.37;88.64
79729;BME280;69218;52.132;5.418;2023-08-01T01:23:28;99917.75;;;15.34;88.33
79729;BME280;69218;52.132;5.418;2023-08-01T01:25:56;99915.81;;;15.28;89.48
79729;BME280;69218;52.132;5.418;2023-08-01T01:28:24;99917.34;;;15.23;89.74
79729;BME280;69218;52.132;5.418;2023-08-01T01:30:52;99919.16;;;15.22;88.69
79729;BME280;69218;52.132;5.418;2023-08-01T01:33:19;99914.03;;;15.21;88.97
79729;BME280;69218;52.132;5.418;2023-08-01T01:35:47;99917.38;;;15.15;89.21
79729;BME280;69218;52.132;5.418;2023-08-01T01:38:13;99923.47;;;15.15;88.69
79729;BME280;69218;52.132;5.418;2023-08-01T01:40:40;99916.72;;;15.13;88.68
79729;BME280;69218;52.132;5.418;2023-08-01T01:43:07;99911.81;;;15.09;88.97
79729;BME280;69218;52.132;5.418;2023-08-01T01:45:34;99915.78;;;15.05;89.40
79729;BME280;69218;52.132;5.418;2023-08-01T01:48:01;99911.88;;;15.01;89.37
79729;BME280;69218;52.132;5.418;2023-08-01T01:50:28;99910.19;;;15.00;89.56
79729;BME280;69218;52.132;5.418;2023-08-01T01:52:55;99910.38;;;14.99;89.21
79729;BME280;69218;52.132;5.418;2023-08-01T01:55:22;99914.38;;;14.95;88.85
79729;BME280;69218;52.132;5.418;2023-08-01T01:57:48;99914.53;;;14.93;90.00
79729;BME280;69218;52.132;5.418;2023-08-01T02:00:16;99910.59;;;14.89;89.85
79729;BME280;69218;52.132;5.418;2023-08-01T02:02:42;99911.59;;;14.88;89.55
79729;BME280;69218;52.132;5.418;2023-08-01T02:05:09;99904.03;;;14.85;89.92
79729;BME280;69218;52.132;5.418;2023-08-01T02:07:35;99903.38;;;14.83;89.58
79729;BME280;69218;52.132;5.418;2023-08-01T02:10:02;99913.28;;;14.81;89.61
79729;BME280;69218;52.132;5.418;2023-08-01T02:12:28;99904.72;;;14.79;89.66
79729;BME280;69218;52.132;5.418;2023-08-01T02:14:58;99906.88;;;14.75;89.94
79729;BME280;69218;52.132;5.418;2023-08-01T02:17:25;99900.97;;;14.73;90.68
79729;BME280;69218;52.132;5.418;2023-08-01T02:19:52;99901.28;;;14.70;90.94
79729;BME280;69218;52.132;5.418;2023-08-01T02:22:18;99896.38;;;14.67;90.87
79729;BME280;69218;52.132;5.418;2023-08-01T02:24:45;99899.84;;;14.68;90.48
79729;BME280;69218;52.132;5.418;2023-08-01T02:27:12;99892.91;;;14.67;90.77
79729;BME280;69218;52.132;5.418;2023-08-01T02:29:38;99891.91;;;14.68;90.65
79729;BME280;69218;52.132;5.418;2023-08-01T02:32:05;99888.47;;;14.67;91.50
79729;BME280;69218;52.132;5.418;2023-08-01T02:34:31;99897.00;;;14.69;91.13
79729;BME280;69218;52.132;5.418;2023-08-01T02:36:58;99889.75;;;14.71;91.66
79729;BME280;69218;52.132;5.418;2023-08-01T02:39:25;99898.97;;;14.75;92.09
79729;BME280;69218;52.132;5.418;2023-08-01T02:41:51;99899.59;;;14.77;92.59
79729;BME280;69218;52.132;5.418;2023-08-01T02:44:18;99907.84;;;14.82;92.43
79729;BME280;69218;52.132;5.418;2023-08-01T02:46:45;99905.19;;;14.82;92.90
79729;BME280;69218;52.132;5.418;2023-08-01T02:49:11;99914.41;;;14.87;93.07
79729;BME280;69218;52.132;5.418;2023-08-01T02:51:38;99907.16;;;14.89;93.42
79729;BME280;69218;52.132;5.418;2023-08-01T02:54:04;99916.72;;;14.90;93.66
79729;BME280;69218;52.132;5.418;2023-08-01T02:56:31;99914.72;;;14.92;93.74
79729;BME280;69218;52.132;5.418;2023-08-01T02:58:57;99921.47;;;14.94;94.04
79729;BME280;69218;52.132;5.418;2023-08-01T03:01:23;99916.34;;;14.93;94.12
79729;BME280;69218;52.132;5.418;2023-08-01T03:03:50;99914.38;;;14.95;94.21
79729;BME280;69218;52.132;5.418;2023-08-01T03:06:17;99902.00;;;14.95;94.34
79729;BME280;69218;52.132;5.418;2023-08-01T03:08:44;99895.22;;;14.93;93.99
79729;BME280;69218;52.132;5.418;2023-08-01T03:11:11;99894.22;;;14.94;93.93
79729;BME280;69218;52.132;5.418;2023-08-01T03:13:37;99892.25;;;14.96;94.41
79729;BME280;69218;52.132;5.418;2023-08-01T03:16:04;99901.63;;;14.98;94.43
79729;BME280;69218;52.132;5.418;2023-08-01T03:18:31;99893.09;;;14.96;94.00
79729;BME280;69218;52.132;5.418;2023-08-01T03:20:57;99890.25;;;14.98;93.80
79729;BME280;69218;52.132;5.418;2023-08-01T03:23:24;99894.53;;;14.99;93.80
79729;BME280;69218;52.132;5.418;2023-08-01T03:25:50;99904.91;;;15.00;93.06
79729;BME280;69218;52.132;5.418;2023-08-01T03:28:17;99906.59;;;15.01;93.38
79729;BME280;69218;52.132;5.418;2023-08-01T03:30:44;99916.28;;;15.01;93.51
79729;BME280;69218;52.132;5.418;2023-08-01T03:33:10;99897.00;;;15.00;93.64
79729;BME280;69218;52.132;5.418;2023-08-01T03:35:37;99892.91;;;14.98;93.82
79729;BME280;69218;52.132;5.418;2023-08-01T03:38:03;99899.63;;;15.00;93.91
79729;BME280;69218;52.132;5.418;2023-08-01T03:40:30;99901.94;;;15.03;94.07
79729;BME280;69218;52.132;5.418;2023-08-01T03:42:57;99894.84;;;15.04;93.71
79729;BME280;69218;52.132;5.418;2023-08-01T03:45:23;99899.31;;;15.03;93.82
79729;BME280;69218;52.132;5.418;2023-08-01T03:47:50;99910.88;;;15.02;93.74
79729;BME280;69218;52.132;5.418;2023-08-01T03:50:16;99899.63;;;15.00;94.04
79729;BME280;69218;52.132;5.418;2023-08-01T03:52:43;99903.28;;;14.99;93.95
79729;BME280;69218;52.132;5.418;2023-08-01T03:55:09;99910.19;;;15.00;94.02
79729;BME280;69218;52.132;5.418;2023-08-01T03:57:36;99901.63;;;14.98;94.29
79729;BME280;69218;52.132;5.418;2023-08-01T04:00:07;99898.19;;;14.98;94.05
79729;BME280;69218;52.132;5.418;2023-08-01T04:02:40;99902.47;;;14.99;94.26
79729;BME280;69218;52.132;5.418;2023-08-01T04:05:10;99902.28;;;15.00;95.10
79729;BME280;69218;52.132;5.418;2023-08-01T04:07:37;99911.38;;;14.98;94.32
79729;BME280;69218;52.132;5.418;2023-08-01T04:10:04;99909.56;;;14.98;94.68
79729;BME280;69218;52.132;5.418;2023-08-01T04:12:32;99906.09;;;14.98;94.73
79729;BME280;69218;52.132;5.418;2023-08-01T04:14:59;99912.19;;;14.98;94.76
79729;BME280;69218;52.132;5.418;2023-08-01T04:17:26;99901.81;;;14.97;94.80
79729;BME280;69218;52.132;5.418;2023-08-01T04:19:53;99900.00;;;14.97;94.69
79729;BME280;69218;52.132;5.418;2023-08-01T04:22:19;99902.47;;;14.99;94.82
79729;BME280;69218;52.132;5.418;2023-08-01T04:24:46;99897.00;;;15.00;94.82
79729;BME280;69218;52.132;5.418;2023-08-01T04:27:12;99897.81;;;15.01;94.48
79729;BME280;69218;52.132;5.418;2023-08-01T04:29:39;99892.53;;;15.01;94.95
79729;BME280;69218;52.132;5.418;2023-08-01T04:32:06;99891.09;;;14.98;94.32
79729;BME280;69218;52.132;5.418;2023-08-01T04:34:32;99890.91;;;15.00;94.11
79729;BME280;69218;52.132;5.418;2023-08-01T04:36:59;99881.34;;;14.99;94.17
79729;BME280;69218;52.132;5.418;2023-08-01T04:39:25;99891.72;;;15.00;93.40
79729;BME280;69218;52.132;5.418;2023-08-01T04:41:52;99887.94;;;15.03;93.40
79729;BME280;69218;52.132;5.418;2023-08-01T04:44:18;99893.22;;;15.03;93.29
79729;BME280;69218;52.132;5.418;2023-08-01T04:46:45;99888.56;;;15.05;93.12
79729;BME280;69218;52.132;5.418;2023-08-01T04:49:11;99886.56;;;15.07;93.42
79729;BME280;69218;52.132;5.418;2023-08-01T04:51:38;99884.75;;;15.07;93.68
79729;BME280;69218;52.132;5.418;2023-08-01T04:54:04;99886.88;;;15.12;93.66
79729;BME280;69218;52.132;5.418;2023-08-01T04:56:31;99882.91;;;15.16;93.87
79729;BME280;69218;52.132;5.418;2023-08-01T04:58:57;99887.00;;;15.19;93.99
79729;BME280;69218;52.132;5.418;2023-08-01T05:01:24;99888.44;;;15.21;93.92
79729;BME280;69218;52.132;5.418;2023-08-01T05:03:50;99893.34;;;15.32;94.01
79729;BME280;69218;52.132;5.418;2023-08-01T05:06:17;99897.84;;;15.47;93.96
79729;BME280;69218;52.132;5.418;2023-08-01T05:08:43;99895.78;;;15.57;93.84
79729;BME280;69218;52.132;5.418;2023-08-01T05:11:10;99899.78;;;15.76;94.06
79729;BME280;69218;52.132;5.418;2023-08-01T05:13:36;99900.38;;;15.86;93.58
79729;BME280;69218;52.132;5.418;2023-08-01T05:16:03;99902.94;;;15.94;94.07
79729;BME280;69218;52.132;5.418;2023-08-01T05:18:30;99896.00;;;15.93;93.55
79729;BME280;69218;52.132;5.418;2023-08-01T05:20:56;99905.72;;;15.92;93.61
79729;BME280;69218;52.132;5.418;2023-08-01T05:23:23;99900.00;;;15.89;93.61
79729;BME280;69218;52.132;5.418;2023-08-01T05:25:49;99904.81;;;15.85;94.19
79729;BME280;69218;52.132;5.418;2023-08-01T05:28:16;99902.72;;;15.81;93.74
79729;BME280;69218;52.132;5.418;2023-08-01T05:30:42;99905.53;;;15.79;94.39
79729;BME280;69218;52.132;5.418;2023-08-01T05:33:09;99900.25;;;15.79;94.77
79729;BME280;69218;52.132;5.418;2023-08-01T05:35:35;99903.72;;;15.80;94.61
79729;BME280;69218;52.132;5.418;2023-08-01T05:38:02;99907.00;;;15.82;94.97
79729;BME280;69218;52.132;5.418;2023-08-01T05:40:28;99908.44;;;15.84;95.02
79729;BME280;69218;52.132;5.418;2023-08-01T05:42:55;99911.38;;;15.89;94.47
79729;BME280;69218;52.132;5.418;2023-08-01T05:45:21;99917.16;;;15.93;94.49
79729;BME280;69218;52.132;5.418;2023-08-01T05:47:48;99913.75;;;15.99;94.59
79729;BME280;69218;52.132;5.418;2023-08-01T05:50:15;99909.41;;;16.06;94.78
79729;BME280;69218;52.132;5.418;2023-08-01T05:52:41;99913.34;;;16.10;94.54
79729;BME280;69218;52.132;5.418;2023-08-01T05:55:08;99922.72;;;16.13;94.26
79729;BME280;69218;52.132;5.418;2023-08-01T05:57:34;99913.16;;;16.12;93.06
79729;BME280;69218;52.132;5.418;2023-08-01T06:00:01;99920.56;;;16.16;93.07
79729;BME280;69218;52.132;5.418;2023-08-01T06:02:27;99923.63;;;16.20;93.52
79729;BME280;69218;52.132;5.418;2023-08-01T06:04:57;99918.63;;;16.25;93.31
79729;BME280;69218;52.132;5.418;2023-08-01T06:07:23;99926.84;;;16.30;93.11
79729;BME280;69218;52.132;5.418;2023-08-01T06:09:50;99924.84;;;16.32;93.38
79729;BME280;69218;52.132;5.418;2023-08-01T06:12:20;99924.13;;;16.38;93.24
79729;BME280;69218;52.132;5.418;2023-08-01T06:14:46;99933.34;;;16.42;93.05
79729;BME280;69218;52.132;5.418;2023-08-01T06:17:14;99938.06;;;16.47;93.26
79729;BME280;69218;52.132;5.418;2023-08-01T06:19:41;99931.59;;;16.50;92.71
79729;BME280;69218;52.132;5.418;2023-08-01T06:22:08;99943.44;;;16.54;92.69
79729;BME280;69218;52.132;5.418;2023-08-01T06:24:34;99948.94;;;16.52;92.68
79729;BME280;69218;52.132;5.418;2023-08-01T06:27:01;99943.09;;;16.57;91.98
79729;BME280;69218;52.132;5.418;2023-08-01T06:29:28;99948.09;;;16.66;91.80
79729;BME280;69218;52.132;5.418;2023-08-01T06:31:54;99944.38;;;16.75;91.71
79729;BME280;69218;52.132;5.418;2023-08-01T06:34:21;99947.28;;;16.81;91.88
79729;BME280;69218;52.132;5.418;2023-08-01T06:36:47;99950.56;;;16.83;91.79
79729;BME280;69218;52.132;5.418;2023-08-01T06:39:14;99951.03;;;16.86;90.36
79729;BME280;69218;52.132;5.418;2023-08-01T06:41:40;99950.22;;;16.86;89.83
79729;BME280;69218;52.132;5.418;2023-08-01T06:44:07;99959.22;;;16.91;90.27
79729;BME280;69218;52.132;5.418;2023-08-01T06:46:33;99959.50;;;16.96;89.59
79729;BME280;69218;52.132;5.418;2023-08-01T06:49:00;99956.56;;;17.06;89.38
79729;BME280;69218;52.132;5.418;2023-08-01T06:51:27;99959.94;;;17.15;89.75
79729;BME280;69218;52.132;5.418;2023-08-01T06:53:54;99956.34;;;17.22;89.89
79729;BME280;69218;52.132;5.418;2023-08-01T06:56:20;99956.41;;;17.29;87.50
79729;BME280;69218;52.132;5.418;2023-08-01T06:58:48;99953.84;;;17.36;87.46
79729;BME280;69218;52.132;5.418;2023-08-01T07:01:14;99960.03;;;17.43;88.25
79729;BME280;69218;52.132;5.418;2023-08-01T07:03:47;99957.50;;;17.56;88.39
79729;BME280;69218;52.132;5.418;2023-08-01T07:06:38;99945.97;;;17.64;86.91
79729;BME280;69218;52.132;5.418;2023-08-01T07:09:05;99948.31;;;17.73;88.05
79729;BME280;69218;52.132;5.418;2023-08-01T07:11:32;99950.19;;;17.79;87.08
79729;BME280;69218;52.132;5.418;2023-08-01T07:13:59;99946.16;;;17.83;87.09
79729;BME280;69218;52.132;5.418;2023-08-01T07:16:25;99949.09;;;17.95;87.68
79729;BME280;69218;52.132;5.418;2023-08-01T07:18:52;99947.97;;;18.04;84.85
79729;BME280;69218;52.132;5.418;2023-08-01T07:21:18;99944.56;;;18.17;85.13
79729;BME280;69218;52.132;5.418;2023-08-01T07:23:45;99947.31;;;18.30;84.68
79729;BME280;69218;52.132;5.418;2023-08-01T07:26:11;99939.63;;;18.42;84.52
79729;BME280;69218;52.132;5.418;2023-08-01T07:28:38;99953.56;;;18.51;85.08
79729;BME280;69218;52.132;5.418;2023-08-01T07:31:06;99952.47;;;18.38;83.06
79729;BME280;69218;52.132;5.418;2023-08-01T07:33:33;99968.78;;;18.07;81.94
79729;BME280;69218;52.132;5.418;2023-08-01T07:36:09;99962.44;;;17.80;81.74
79729;BME280;69218;52.132;5.418;2023-08-01T07:38:38;99962.56;;;17.72;83.77
79729;BME280;69218;52.132;5.418;2023-08-01T07:41:06;99973.84;;;17.60;83.20
79729;BME280;69218;52.132;5.418;2023-08-01T07:43:33;99965.34;;;17.64;83.93
79729;BME280;69218;52.132;5.418;2023-08-01T07:46:00;99967.81;;;17.87;84.51
79729;BME280;69218;52.132;5.418;2023-08-01T07:48:27;99966.03;;;17.94;83.12
79729;BME280;69218;52.132;5.418;2023-08-01T07:50:53;99972.91;;;17.89;85.09
79729;BME280;69218;52.132;5.418;2023-08-01T07:53:20;99968.50;;;17.74;85.33
79729;BME280;69218;52.132;5.418;2023-08-01T07:55:46;99967.16;;;17.64;85.67
79729;BME280;69218;52.132;5.418;2023-08-01T07:58:13;99976.41;;;17.53;84.74
79729;BME280;69218;52.132;5.418;2023-08-01T08:00:39;99972.38;;;17.36;84.07
79729;BME280;69218;52.132;5.418;2023-08-01T08:03:05;99984.09;;;17.26;85.47
79729;BME280;69218;52.132;5.418;2023-08-01T08:05:34;99980.81;;;17.24;86.35
79729;BME280;69218;52.132;5.418;2023-08-01T08:08:05;99976.34;;;17.46;86.52
79729;BME280;69218;52.132;5.418;2023-08-01T08:10:32;99977.28;;;17.75;84.10
79729;BME280;69218;52.132;5.418;2023-08-01T08:12:58;99980.38;;;18.00;83.90
79729;BME280;69218;52.132;5.418;2023-08-01T08:15:25;99979.91;;;18.24;83.44
79729;BME280;69218;52.132;5.418;2023-08-01T08:17:52;99980.72;;;18.53;83.78
79729;BME280;69218;52.132;5.418;2023-08-01T08:20:18;99979.53;;;18.55;83.11
79729;BME280;69218;52.132;5.418;2023-08-01T08:22:45;99974.91;;;18.36;81.86
79729;BME280;69218;52.132;5.418;2023-08-01T08:25:12;99972.72;;;18.18;82.98
79729;BME280;69218;52.132;5.418;2023-08-01T08:27:38;99985.31;;;18.09;84.15
79729;BME280;69218;52.132;5.418;2023-08-01T08:30:05;99990.56;;;18.03;83.63
79729;BME280;69218;52.132;5.418;2023-08-01T08:32:32;99997.69;;;18.24;82.64
79729;BME280;69218;52.132;5.418;2023-08-01T08:34:58;99998.13;;;18.55;81.21
79729;BME280;69218;52.132;5.418;2023-08-01T08:37:25;99993.38;;;18.51;80.09
79729;BME280;69218;52.132;5.418;2023-08-01T08:39:52;99992.09;;;18.40;80.45
79729;BME280;69218;52.132;5.418;2023-08-01T08:42:18;99992.03;;;18.61;78.96
79729;BME280;69218;52.132;5.418;2023-08-01T08:44:49;99999.31;;;18.87;77.84
79729;BME280;69218;52.132;5.418;2023-08-01T08:47:19;99981.03;;;19.06;78.27
79729;BME280;69218;52.132;5.418;2023-08-01T08:49:49;99988.50;;;19.43;79.13
79729;BME280;69218;52.132;5.418;2023-08-01T08:52:16;99981.78;;;19.54;78.00
79729;BME280;69218;52.132;5.418;2023-08-01T08:54:43;99978.97;;;19.62;76.30
79729;BME280;69218;52.132;5.418;2023-08-01T08:57:10;99985.31;;;19.61;78.32
79729;BME280;69218;52.132;5.418;2023-08-01T08:59:37;99982.59;;;19.48;77.17
79729;BME280;69218;52.132;5.418;2023-08-01T09:02:04;99988.50;;;19.50;76.54
79729;BME280;69218;52.132;5.418;2023-08-01T09:04:31;99992.78;;;19.44;73.92
79729;BME280;69218;52.132;5.418;2023-08-01T09:07:02;100000.06;;;19.77;74.86
79729;BME280;69218;52.132;5.418;2023-08-01T09:09:29;100001.09;;;19.89;75.37
79729;BME280;69218;52.132;5.418;2023-08-01T09:11:58;99993.50;;;19.80;75.96
79729;BME280;69218;52.132;5.418;2023-08-01T09:14:24;100006.09;;;19.44;72.02
79729;BME280;69218;52.132;5.418;2023-08-01T09:16:51;100007.44;;;19.20;73.29
79729;BME280;69218;52.132;5.418;2023-08-01T09:19:19;100022.22;;;18.88;73.81
79729;BME280;69218;52.132;5.418;2023-08-01T09:21:46;100023.16;;;18.74;74.80
79729;BME280;69218;52.132;5.418;2023-08-01T09:24:15;100030.63;;;18.64;75.30
79729;BME280;69218;52.132;5.418;2023-08-01T09:26:43;100036.88;;;18.78;75.72
79729;BME280;69218;52.132;5.418;2023-08-01T09:29:10;100037.19;;;18.96;76.71
79729;BME280;69218;52.132;5.418;2023-08-01T09:31:38;100022.66;;;18.92;76.84
79729;BME280;69218;52.132;5.418;2023-08-01T09:34:06;100033.75;;;19.09;75.81
79729;BME280;69218;52.132;5.418;2023-08-01T09:36:33;100033.44;;;19.25;73.26
79729;BME280;69218;52.132;5.418;2023-08-01T09:39:01;100034.66;;;19.29;73.85
79729;BME280;69218;52.132;5.418;2023-08-01T09:41:29;100041.84;;;19.35;75.07
79729;BME280;69218;52.132;5.418;2023-08-01T09:43:56;100059.16;;;19.18;74.89
79729;BME280;69218;52.132;5.418;2023-08-01T09:46:23;100061.06;;;18.89;77.17
79729;BME280;69218;52.132;5.418;2023-08-01T09:48:50;100055.09;;;18.59;77.81
79729;BME280;69218;52.132;5.418;2023-08-01T09:51:18;100051.09;;;18.42;78.71
79729;BME280;69218;52.132;5.418;2023-08-01T09:53:52;100049.88;;;18.45;78.63
79729;BME280;69218;52.132;5.418;2023-08-01T09:56:26;100052.78;;;18.50;80.97
79729;BME280;69218;52.132;5.418;2023-08-01T09:58:55;100048.50;;;18.49;78.81
79729;BME280;69218;52.132;5.418;2023-08-01T10:01:24;100054.06;;;18.54;83.54
79729;BME280;69218;52.132;5.418;2023-08-01T10:03:52;100061.75;;;18.70;81.31
79729;BME280;69218;52.132;5.418;2023-08-01T10:06:24;100061.34;;;18.73;81.04
79729;BME280;69218;52.132;5.418;2023-08-01T10:08:52;100052.66;;;18.86;79.43
79729;BME280;69218;52.132;5.418;2023-08-01T10:11:20;100055.03;;;19.15;79.65
79729;BME280;69218;52.132;5.418;2023-08-01T10:13:50;100060.28;;;19.43;78.56
79729;BME280;69218;52.132;5.418;2023-08-01T10:16:17;100062.22;;;19.69;78.96
79729;BME280;69218;52.132;5.418;2023-08-01T10:18:44;100060.19;;;19.78;77.33
79729;BME280;69218;52.132;5.418;2023-08-01T10:21:15;100060.25;;;19.98;74.43
79729;BME280;69218;52.132;5.418;2023-08-01T10:23:44;100056.53;;;19.79;72.87
79729;BME280;69218;52.132;5.418;2023-08-01T10:26:11;100076.47;;;19.55;75.41
79729;BME280;69218;52.132;5.418;2023-08-01T10:28:40;100081.34;;;19.38;78.18
79729;BME280;69218;52.132;5.418;2023-08-01T10:31:10;100067.97;;;19.66;75.87
79729;BME280;69218;52.132;5.418;2023-08-01T10:33:49;100075.38;;;19.97;75.97
79729;BME280;69218;52.132;5.418;2023-08-01T10:36:23;100078.69;;;20.26;73.84
79729;BME280;69218;52.132;5.418;2023-08-01T10:38:51;100077.47;;;20.28;73.50
79729;BME280;69218;52.132;5.418;2023-08-01T10:41:19;100082.94;;;19.94;72.40
79729;BME280;69218;52.132;5.418;2023-08-01T10:43:45;100082.91;;;19.67;69.28
79729;BME280;69218;52.132;5.418;2023-08-01T10:46:12;100080.00;;;19.62;70.84
79729;BME280;69218;52.132;5.418;2023-08-01T10:48:52;100086.22;;;19.83;73.86
79729;BME280;69218;52.132;5.418;2023-08-01T10:51:19;100086.66;;;20.19;69.69
79729;BME280;69218;52.132;5.418;2023-08-01T10:53:45;100080.56;;;20.45;70.31
79729;BME280;69218;52.132;5.418;2023-08-01T10:56:18;100085.88;;;20.72;69.09
79729;BME280;69218;52.132;5.418;2023-08-01T10:58:46;100085.22;;;20.90;68.10
79729;BME280;69218;52.132;5.418;2023-08-01T11:01:13;100084.19;;;20.91;65.08
79729;BME280;69218;52.132;5.418;2023-08-01T11:03:40;100079.94;;;20.70;65.96
79729;BME280;69218;52.132;5.418;2023-08-01T11:06:08;100084.41;;;20.36;66.80
79729;BME280;69218;52.132;5.418;2023-08-01T11:08:39;100093.63;;;20.27;65.93
79729;BME280;69218;52.132;5.418;2023-08-01T11:11:13;100095.91;;;20.76;67.24
79729;BME280;69218;52.132;5.418;2023-08-01T11:13:44;100091.97;;;21.05;65.45
79729;BME280;69218;52.132;5.418;2023-08-01T11:16:15;100089.13;;;21.00;63.57
79729;BME280;69218;52.132;5.418;2023-08-01T11:18:42;100080.13;;;20.88;66.91
79729;BME280;69218;52.132;5.418;2023-08-01T11:21:09;100089.97;;;20.74;64.42
79729;BME280;69218;52.132;5.418;2023-08-01T11:23:36;100093.47;;;20.62;66.61
79729;BME280;69218;52.132;5.418;2023-08-01T11:26:08;100098.78;;;20.75;66.13
79729;BME280;69218;52.132;5.418;2023-08-01T11:28:35;100109.16;;;21.16;64.94
79729;BME280;69218;52.132;5.418;2023-08-01T11:31:10;100102.72;;;21.50;64.19
79729;BME280;69218;52.132;5.418;2023-08-01T11:33:38;100103.88;;;21.61;60.93
79729;BME280;69218;52.132;5.418;2023-08-01T11:36:08;100112.00;;;21.21;61.72
79729;BME280;69218;52.132;5.418;2023-08-01T11:38:34;100114.28;;;21.11;61.64
79729;BME280;69218;52.132;5.418;2023-08-01T11:41:03;100108.38;;;20.96;61.23
79729;BME280;69218;52.132;5.418;2023-08-01T11:43:39;100113.72;;;20.89;63.06
79729;BME280;69218;52.132;5.418;2023-08-01T11:46:06;100111.88;;;20.83;63.36
79729;BME280;69218;52.132;5.418;2023-08-01T11:48:33;100122.16;;;20.79;63.68
79729;BME280;69218;52.132;5.418;2023-08-01T11:51:00;100123.97;;;20.79;63.84
79729;BME280;69218;52.132;5.418;2023-08-01T11:53:27;100122.75;;;20.95;65.58
79729;BME280;69218;52.132;5.418;2023-08-01T11:55:55;100124.72;;;21.39;64.14
79729;BME280;69218;52.132;5.418;2023-08-01T11:58:32;100126.34;;;21.33;62.55
79729;BME280;69218;52.132;5.418;2023-08-01T12:01:07;100124.13;;;21.17;66.35
79729;BME280;69218;52.132;5.418;2023-08-01T12:03:45;100131.13;;;20.98;63.48
79729;BME280;69218;52.132;5.418;2023-08-01T12:06:13;100119.66;;;20.91;63.64
79729;BME280;69218;52.132;5.418;2023-08-01T12:08:44;100122.75;;;20.81;63.35
79729;BME280;69218;52.132;5.418;2023-08-01T12:11:24;100131.19;;;20.65;63.53
79729;BME280;69218;52.132;5.418;2023-08-01T12:14:12;100139.78;;;20.74;65.88
79729;BME280;69218;52.132;5.418;2023-08-01T12:16:40;100132.59;;;20.81;62.36
79729;BME280;69218;52.132;5.418;2023-08-01T12:19:08;100133.63;;;20.67;63.66
79729;BME280;69218;52.132;5.418;2023-08-01T12:21:35;100138.13;;;20.66;62.65
79729;BME280;69218;52.132;5.418;2023-08-01T12:24:03;100141.41;;;20.81;62.54
79729;BME280;69218;52.132;5.418;2023-08-01T12:26:29;100152.06;;;20.81;61.02
79729;BME280;69218;52.132;5.418;2023-08-01T12:28:56;100149.81;;;20.65;62.11
79729;BME280;69218;52.132;5.418;2023-08-01T12:31:23;100151.25;;;20.54;61.50
79729;BME280;69218;52.132;5.418;2023-08-01T12:33:50;100162.72;;;20.55;64.04
79729;BME280;69218;52.132;5.418;2023-08-01T12:36:17;100147.13;;;20.92;63.46
79729;BME280;69218;52.132;5.418;2023-08-01T12:38:43;100159.63;;;20.78;63.14
79729;BME280;69218;52.132;5.418;2023-08-01T12:41:10;100159.63;;;20.71;64.63
79729;BME280;69218;52.132;5.418;2023-08-01T12:43:37;100155.53;;;21.08;65.23
79729;BME280;69218;52.132;5.418;2023-08-01T12:46:03;100156.22;;;21.62;63.57
79729;BME280;69218;52.132;5.418;2023-08-01T12:48:30;100148.50;;;21.92;59.77
79729;BME280;69218;52.132;5.418;2023-08-01T12:50:57;100151.69;;;22.14;58.04
79729;BME280;69218;52.132;5.418;2023-08-01T12:53:23;100158.69;;;22.40;58.87
79729;BME280;69218;52.132;5.418;2023-08-01T12:55:51;100157.84;;;22.71;58.87
79729;BME280;69218;52.132;5.418;2023-08-01T12:58:18;100152.03;;;23.06;55.99
79729;BME280;69218;52.132;5.418;2023-08-01T13:00:45;100153.44;;;23.26;54.90